sensor_id;sensor_type;location;lat;lon;timestamp;temperature;humidity
9987;DHT22;5033;46.310;11.214;2023-04-03T00:01:01;11.10;92.90
9987;DHT22;5033;46.310;11.214;2023-04-03T00:03:29;11.10;92.80
9987;DHT22;5033;46.310;11.214;2023-04-03T00:05:56;11.00;92.90
9987;DHT22;5033;46.310;11.214;2023-04-03T00:08:23;11.00;93.00
9987;DHT22;5033;46.310;11.214;2023-04-03T00:10:50;11.00;93.10
9987;DHT22;5033;46.310;11.214;2023-04-03T00:13:18;11.00;92.90
9987;DHT22;5033;46.310;11.214;2023-04-03T00:15:45;11.00;92.90
9987;DHT22;5033;46.310;11.214;2023-04-03T00:18:13;11.10;93.00
9987;DHT22;5033;46.310;11.214;2023-04-03T00:20:40;11.10;93.10
9987;DHT22;5033;46.310;11.214;2023-04-03T00:23:07;11.00;93.10
9987;DHT22;5033;46.310;11.214;2023-04-03T00:25:34;10.90;93.30
9987;DHT22;5033;46.310;11.214;2023-04-03T00:28:03;10.90;93.30
9987;DHT22;5033;46.310;11.214;2023-04-03T00:30:29;10.90;93.50
9987;DHT22;5033;46.310;11.214;2023-04-03T00:32:57;10.90;93.70
9987;DHT22;5033;46.310;11.214;2023-04-03T00:35:25;10.80;93.70
9987;DHT22;5033;46.310;11.214;2023-04-03T00:37:54;10.80;93.70
9987;DHT22;5033;46.310;11.214;2023-04-03T00:40:23;10.80;93.80
9987;DHT22;5033;46.310;11.214;2023-04-03T00:42:53;10.70;93.90
9987;DHT22;5033;46.310;11.214;2023-04-03T00:45:29;10.70;94.20
9987;DHT22;5033;46.310;11.214;2023-04-03T00:47:57;10.60;94.20
9987;DHT22;5033;46.310;11.214;2023-04-03T00:50:28;10.60;94.40
9987;DHT22;5033;46.310;11.214;2023-04-03T00:52:56;10.60;94.60
9987;DHT22;5033;46.310;11.214;2023-04-03T00:55:24;10.50;94.60
9987;DHT22;5033;46.310;11.214;2023-04-03T00:57:52;10.50;94.80
9987;DHT22;5033;46.310;11.214;2023-04-03T01:00:20;10.50;94.90
9987;DHT22;5033;46.310;11.214;2023-04-03T01:02:49;10.50;95.00
9987;DHT22;5033;46.310;11.214;2023-04-03T01:05:17;10.40;95.00
9987;DHT22;5033;46.310;11.214;2023-04-03T01:07:46;10.40;95.00
9987;DHT22;5033;46.310;11.214;2023-04-03T01:10:15;10.40;95.00
9987;DHT22;5033;46.310;11.214;2023-04-03T01:12:46;10.40;95.00
9987;DHT22;5033;46.310;11.214;2023-04-03T01:15:15;10.40;95.10
9987;DHT22;5033;46.310;11.214;2023-04-03T01:17:44;10.40;95.30
9987;DHT22;5033;46.310;11.214;2023-04-03T01:23:21;10.30;95.80
9987;DHT22;5033;46.310;11.214;2023-04-03T01:25:51;10.20;95.90
9987;DHT22;5033;46.310;11.214;2023-04-03T01:28:21;10.20;96.10
9987;DHT22;5033;46.310;11.214;2023-04-03T01:30:52;10.10;96.00
9987;DHT22;5033;46.310;11.214;2023-04-03T01:33:21;10.10;96.10
9987;DHT22;5033;46.310;11.214;2023-04-03T01:35:48;10.10;96.10
9987;DHT22;5033;46.310;11.214;2023-04-03T01:38:15;10.10;96.20
9987;DHT22;5033;46.310;11.214;2023-04-03T01:40:42;10.10;96.10
9987;DHT22;5033;46.310;11.214;2023-04-03T01:43:09;10.10;96.10
9987;DHT22;5033;46.310;11.214;2023-04-03T01:45:36;10.10;96.30
9987;DHT22;5033;46.310;11.214;2023-04-03T01:48:04;10.00;96.50
9987;DHT22;5033;46.310;11.214;2023-04-03T01:50:32;10.00;96.70
9987;DHT22;5033;46.310;11.214;2023-04-03T01:52:59;9.90;97.20
9987;DHT22;5033;46.310;11.214;2023-04-03T01:55:26;9.80;97.30
9987;DHT22;5033;46.310;11.214;2023-04-03T01:57:53;9.70;97.80
9987;DHT22;5033;46.310;11.214;2023-04-03T02:00:20;9.60;97.80
9987;DHT22;5033;46.310;11.214;2023-04-03T02:02:47;9.60;97.80
9987;DHT22;5033;46.310;11.214;2023-04-03T02:05:15;9.60;97.80
9987;DHT22;5033;46.310;11.214;2023-04-03T02:07:43;9.60;97.90
9987;DHT22;5033;46.310;11.214;2023-04-03T02:10:12;9.60;98.00
9987;DHT22;5033;46.310;11.214;2023-04-03T02:12:39;9.50;98.10
9987;DHT22;5033;46.310;11.214;2023-04-03T02:15:07;9.50;98.20
9987;DHT22;5033;46.310;11.214;2023-04-03T02:17:35;9.40;98.30
9987;DHT22;5033;46.310;11.214;2023-04-03T02:20:03;9.40;98.60
9987;DHT22;5033;46.310;11.214;2023-04-03T02:22:30;9.30;98.70
9987;DHT22;5033;46.310;11.214;2023-04-03T02:24:58;9.30;98.80
9987;DHT22;5033;46.310;11.214;2023-04-03T02:27:25;9.30;99.20
9987;DHT22;5033;46.310;11.214;2023-04-03T02:29:52;9.30;99.40
9987;DHT22;5033;46.310;11.214;2023-04-03T02:32:19;9.20;99.50
9987;DHT22;5033;46.310;11.214;2023-04-03T02:34:46;9.10;99.60
9987;DHT22;5033;46.310;11.214;2023-04-03T02:37:13;9.10;99.50
9987;DHT22;5033;46.310;11.214;2023-04-03T02:39:40;9.10;99.40
9987;DHT22;5033;46.310;11.214;2023-04-03T02:42:08;9.10;99.40
9987;DHT22;5033;46.310;11.214;2023-04-03T02:44:36;9.20;99.40
9987;DHT22;5033;46.310;11.214;2023-04-03T02:47:03;9.20;99.40
9987;DHT22;5033;46.310;11.214;2023-04-03T02:49:39;9.20;99.90
9987;DHT22;5033;46.310;11.214;2023-04-03T02:52:06;9.20;99.70
9987;DHT22;5033;46.310;11.214;2023-04-03T02:54:33;9.20;99.90
9987;DHT22;5033;46.310;11.214;2023-04-03T02:57:01;9.10;99.90
9987;DHT22;5033;46.310;11.214;2023-04-03T02:59:29;9.00;99.90
9987;DHT22;5033;46.310;11.214;2023-04-03T03:01:56;9.10;99.90
9987;DHT22;5033;46.310;11.214;2023-04-03T03:04:23;9.10;99.90
9987;DHT22;5033;46.310;11.214;2023-04-03T03:06:50;9.10;99.90
9987;DHT22;5033;46.310;11.214;2023-04-03T03:09:18;9.10;99.90
9987;DHT22;5033;46.310;11.214;2023-04-03T03:11:45;9.10;99.90
9987;DHT22;5033;46.310;11.214;2023-04-03T03:14:11;9.10;99.90
9987;DHT22;5033;46.310;11.214;2023-04-03T03:16:40;9.00;99.90
9987;DHT22;5033;46.310;11.214;2023-04-03T03:19:07;9.00;99.90
9987;DHT22;5033;46.310;11.214;2023-04-03T03:21:34;9.00;99.90
9987;DHT22;5033;46.310;11.214;2023-04-03T03:24:01;9.00;99.90
9987;DHT22;5033;46.310;11.214;2023-04-03T03:26:28;9.00;99.90
9987;DHT22;5033;46.310;11.214;2023-04-03T03:28:55;9.10;99.90
9987;DHT22;5033;46.310;11.214;2023-04-03T03:31:22;9.10;99.90
9987;DHT22;5033;46.310;11.214;2023-04-03T03:33:51;9.00;99.90
9987;DHT22;5033;46.310;11.214;2023-04-03T03:36:18;9.10;99.90
9987;DHT22;5033;46.310;11.214;2023-04-03T03:38:45;9.10;99.90
9987;DHT22;5033;46.310;11.214;2023-04-03T03:41:12;9.10;99.90
9987;DHT22;5033;46.310;11.214;2023-04-03T03:43:39;9.10;99.90
9987;DHT22;5033;46.310;11.214;2023-04-03T03:46:06;9.10;99.90
9987;DHT22;5033;46.310;11.214;2023-04-03T03:48:33;9.00;99.90
9987;DHT22;5033;46.310;11.214;2023-04-03T03:51:02;9.00;99.90
9987;DHT22;5033;46.310;11.214;2023-04-03T03:53:29;8.90;99.90
9987;DHT22;5033;46.310;11.214;2023-04-03T03:55:56;8.80;99.90
9987;DHT22;5033;46.310;11.214;2023-04-03T03:58:23;8.70;99.90
9987;DHT22;5033;46.310;11.214;2023-04-03T04:00:50;8.70;99.90
9987;DHT22;5033;46.310;11.214;2023-04-03T04:03:17;8.60;99.90
9987;DHT22;5033;46.310;11.214;2023-04-03T04:05:44;8.70;99.90
9987;DHT22;5033;46.310;11.214;2023-04-03T04:08:12;8.60;99.90
9987;DHT22;5033;46.310;11.214;2023-04-03T04:10:39;8.70;99.90
9987;DHT22;5033;46.310;11.214;2023-04-03T04:13:06;8.70;99.90
9987;DHT22;5033;46.310;11.214;2023-04-03T04:15:33;8.70;99.90
9987;DHT22;5033;46.310;11.214;2023-04-03T04:18:00;8.70;99.90
9987;DHT22;5033;46.310;11.214;2023-04-03T04:20:28;8.70;99.90
9987;DHT22;5033;46.310;11.214;2023-04-03T04:22:55;8.70;99.90
9987;DHT22;5033;46.310;11.214;2023-04-03T04:25:23;8.70;99.90
9987;DHT22;5033;46.310;11.214;2023-04-03T04:27:51;8.70;99.90
9987;DHT22;5033;46.310;11.214;2023-04-03T04:30:18;8.70;99.90
9987;DHT22;5033;46.310;11.214;2023-04-03T04:32:46;8.80;99.90
9987;DHT22;5033;46.310;11.214;2023-04-03T04:35:13;8.70;99.90
9987;DHT22;5033;46.310;11.214;2023-04-03T04:37:41;8.70;99.90
9987;DHT22;5033;46.310;11.214;2023-04-03T04:40:08;8.70;99.90
9987;DHT22;5033;46.310;11.214;2023-04-03T04:42:37;8.60;99.90
9987;DHT22;5033;46.310;11.214;2023-04-03T04:45:04;8.60;99.90
9987;DHT22;5033;46.310;11.214;2023-04-03T04:47:31;8.50;99.90
9987;DHT22;5033;46.310;11.214;2023-04-03T04:49:58;8.50;99.90
9987;DHT22;5033;46.310;11.214;2023-04-03T04:52:25;8.50;99.90
9987;DHT22;5033;46.310;11.214;2023-04-03T04:54:52;8.50;99.90
9987;DHT22;5033;46.310;11.214;2023-04-03T04:57:19;8.50;99.90
9987;DHT22;5033;46.310;11.214;2023-04-03T04:59:48;8.50;99.90
9987;DHT22;5033;46.310;11.214;2023-04-03T05:02:15;8.50;99.90
9987;DHT22;5033;46.310;11.214;2023-04-03T05:04:42;8.60;99.90
9987;DHT22;5033;46.310;11.214;2023-04-03T05:07:09;8.60;99.90
9987;DHT22;5033;46.310;11.214;2023-04-03T05:09:36;8.50;99.90
9987;DHT22;5033;46.310;11.214;2023-04-03T05:12:03;8.60;99.90
9987;DHT22;5033;46.310;11.214;2023-04-03T05:14:30;8.60;99.90
9987;DHT22;5033;46.310;11.214;2023-04-03T05:16:59;8.60;99.90
9987;DHT22;5033;46.310;11.214;2023-04-03T05:19:26;8.60;99.90
9987;DHT22;5033;46.310;11.214;2023-04-03T05:21:53;8.60;99.90
9987;DHT22;5033;46.310;11.214;2023-04-03T05:24:20;8.60;99.90
9987;DHT22;5033;46.310;11.214;2023-04-03T05:26:47;8.60;99.90
9987;DHT22;5033;46.310;11.214;2023-04-03T05:29:14;8.70;99.90
9987;DHT22;5033;46.310;11.214;2023-04-03T05:31:41;9.00;99.90
9987;DHT22;5033;46.310;11.214;2023-04-03T05:34:10;9.50;99.90
9987;DHT22;5033;46.310;11.214;2023-04-03T05:36:37;9.90;99.90
9987;DHT22;5033;46.310;11.214;2023-04-03T05:39:04;10.20;99.90
9987;DHT22;5033;46.310;11.214;2023-04-03T05:41:31;10.40;99.90
9987;DHT22;5033;46.310;11.214;2023-04-03T05:43:58;10.70;99.90
9987;DHT22;5033;46.310;11.214;2023-04-03T05:46:25;11.30;99.90
9987;DHT22;5033;46.310;11.214;2023-04-03T05:48:52;11.70;99.90
9987;DHT22;5033;46.310;11.214;2023-04-03T05:51:23;12.00;99.90
9987;DHT22;5033;46.310;11.214;2023-04-03T05:53:54;12.20;99.90
9987;DHT22;5033;46.310;11.214;2023-04-03T05:56:22;12.30;99.90
9987;DHT22;5033;46.310;11.214;2023-04-03T05:58:49;12.40;99.90
9987;DHT22;5033;46.310;11.214;2023-04-03T06:01:16;12.60;99.90
9987;DHT22;5033;46.310;11.214;2023-04-03T06:03:43;12.90;99.90
9987;DHT22;5033;46.310;11.214;2023-04-03T06:06:13;13.20;99.90
9987;DHT22;5033;46.310;11.214;2023-04-03T06:08:42;13.40;99.90
9987;DHT22;5033;46.310;11.214;2023-04-03T06:11:10;13.60;99.90
9987;DHT22;5033;46.310;11.214;2023-04-03T06:13:37;13.80;99.90
9987;DHT22;5033;46.310;11.214;2023-04-03T06:16:05;13.80;99.90
9987;DHT22;5033;46.310;11.214;2023-04-03T06:18:32;13.90;99.30
9987;DHT22;5033;46.310;11.214;2023-04-03T06:20:59;14.00;99.50
9987;DHT22;5033;46.310;11.214;2023-04-03T06:23:26;14.10;98.80
9987;DHT22;5033;46.310;11.214;2023-04-03T06:25:54;14.10;98.30
9987;DHT22;5033;46.310;11.214;2023-04-03T06:28:22;14.30;98.50
9987;DHT22;5033;46.310;11.214;2023-04-03T06:30:50;14.50;98.40
9987;DHT22;5033;46.310;11.214;2023-04-03T06:33:16;14.60;98.10
9987;DHT22;5033;46.310;11.214;2023-04-03T06:35:43;14.60;97.00
9987;DHT22;5033;46.310;11.214;2023-04-03T06:38:11;14.60;97.20
9987;DHT22;5033;46.310;11.214;2023-04-03T06:40:38;14.60;97.90
9987;DHT22;5033;46.310;11.214;2023-04-03T06:43:07;14.60;97.40
9987;DHT22;5033;46.310;11.214;2023-04-03T06:45:34;14.70;97.40
9987;DHT22;5033;46.310;11.214;2023-04-03T06:48:01;14.90;97.70
9987;DHT22;5033;46.310;11.214;2023-04-03T06:50:28;15.00;97.10
9987;DHT22;5033;46.310;11.214;2023-04-03T06:52:55;15.20;96.80
9987;DHT22;5033;46.310;11.214;2023-04-03T06:55:22;15.30;96.30
9987;DHT22;5033;46.310;11.214;2023-04-03T06:57:49;15.50;95.50
9987;DHT22;5033;46.310;11.214;2023-04-03T07:00:18;15.60;95.10
9987;DHT22;5033;46.310;11.214;2023-04-03T07:02:45;15.70;94.90
9987;DHT22;5033;46.310;11.214;2023-04-03T07:05:13;15.80;94.30
9987;DHT22;5033;46.310;11.214;2023-04-03T07:07:40;15.90;94.00
9987;DHT22;5033;46.310;11.214;2023-04-03T07:10:07;16.20;94.00
9987;DHT22;5033;46.310;11.214;2023-04-03T07:12:35;16.30;93.00
9987;DHT22;5033;46.310;11.214;2023-04-03T07:15:03;16.30;91.80
9987;DHT22;5033;46.310;11.214;2023-04-03T07:17:32;16.20;91.70
9987;DHT22;5033;46.310;11.214;2023-04-03T07:19:59;16.30;91.70
9987;DHT22;5033;46.310;11.214;2023-04-03T07:22:26;16.40;91.20
9987;DHT22;5033;46.310;11.214;2023-04-03T07:24:53;16.20;90.60
9987;DHT22;5033;46.310;11.214;2023-04-03T07:27:20;16.30;90.40
9987;DHT22;5033;46.310;11.214;2023-04-03T07:29:47;16.30;88.90
9987;DHT22;5033;46.310;11.214;2023-04-03T07:32:15;16.30;90.50
9987;DHT22;5033;46.310;11.214;2023-04-03T07:34:44;16.50;90.60
9987;DHT22;5033;46.310;11.214;2023-04-03T07:37:11;16.60;90.00
9987;DHT22;5033;46.310;11.214;2023-04-03T07:39:38;16.60;88.30
9987;DHT22;5033;46.310;11.214;2023-04-03T07:42:05;16.90;86.90
9987;DHT22;5033;46.310;11.214;2023-04-03T07:44:32;17.20;85.30
9987;DHT22;5033;46.310;11.214;2023-04-03T07:47:01;17.40;84.60
9987;DHT22;5033;46.310;11.214;2023-04-03T07:49:27;17.60;79.50
9987;DHT22;5033;46.310;11.214;2023-04-03T07:51:56;17.70;77.50
9987;DHT22;5033;46.310;11.214;2023-04-03T07:54:24;17.70;76.10
9987;DHT22;5033;46.310;11.214;2023-04-03T07:56:51;17.80;74.40
9987;DHT22;5033;46.310;11.214;2023-04-03T07:59:18;17.90;74.30
9987;DHT22;5033;46.310;11.214;2023-04-03T08:01:45;18.00;73.20
9987;DHT22;5033;46.310;11.214;2023-04-03T08:04:12;18.00;71.90
9987;DHT22;5033;46.310;11.214;2023-04-03T08:06:39;18.20;71.10
9987;DHT22;5033;46.310;11.214;2023-04-03T08:09:07;18.40;71.00
9987;DHT22;5033;46.310;11.214;2023-04-03T08:11:35;18.60;70.60
9987;DHT22;5033;46.310;11.214;2023-04-03T08:14:02;18.60;68.70
9987;DHT22;5033;46.310;11.214;2023-04-03T08:16:29;18.50;66.00
9987;DHT22;5033;46.310;11.214;2023-04-03T08:18:56;18.50;66.20
9987;DHT22;5033;46.310;11.214;2023-04-03T08:21:23;18.60;66.90
9987;DHT22;5033;46.310;11.214;2023-04-03T08:23:50;18.50;65.20
9987;DHT22;5033;46.310;11.214;2023-04-03T08:26:20;18.60;64.30
9987;DHT22;5033;46.310;11.214;2023-04-03T08:28:48;18.70;62.90
9987;DHT22;5033;46.310;11.214;2023-04-03T08:31:17;18.80;63.30
9987;DHT22;5033;46.310;11.214;2023-04-03T08:33:44;18.90;63.00
9987;DHT22;5033;46.310;11.214;2023-04-03T08:36:18;18.80;61.00
9987;DHT22;5033;46.310;11.214;2023-04-03T08:38:46;18.60;62.00
9987;DHT22;5033;46.310;11.214;2023-04-03T08:41:16;18.60;61.10
9987;DHT22;5033;46.310;11.214;2023-04-03T08:43:56;18.70;61.10
9987;DHT22;5033;46.310;11.214;2023-04-03T08:46:35;18.80;58.80
9987;DHT22;5033;46.310;11.214;2023-04-03T08:49:12;18.90;58.10
9987;DHT22;5033;46.310;11.214;2023-04-03T08:51:46;18.80;56.50
9987;DHT22;5033;46.310;11.214;2023-04-03T08:54:25;18.90;57.90
9987;DHT22;5033;46.310;11.214;2023-04-03T08:56:55;18.80;58.00
9987;DHT22;5033;46.310;11.214;2023-04-03T08:59:27;18.90;56.70
9987;DHT22;5033;46.310;11.214;2023-04-03T09:01:56;18.90;57.20
9987;DHT22;5033;46.310;11.214;2023-04-03T09:04:26;19.00;56.80
9987;DHT22;5033;46.310;11.214;2023-04-03T09:06:57;19.40;57.00
9987;DHT22;5033;46.310;11.214;2023-04-03T09:09:31;19.60;57.00
9987;DHT22;5033;46.310;11.214;2023-04-03T09:12:06;19.60;56.40
9987;DHT22;5033;46.310;11.214;2023-04-03T09:14:39;19.70;56.00
9987;DHT22;5033;46.310;11.214;2023-04-03T09:17:15;19.70;55.90
9987;DHT22;5033;46.310;11.214;2023-04-03T09:19:52;20.00;55.90
9987;DHT22;5033;46.310;11.214;2023-04-03T09:22:24;20.00;54.50
9987;DHT22;5033;46.310;11.214;2023-04-03T09:24:57;19.90;54.70
9987;DHT22;5033;46.310;11.214;2023-04-03T09:27:25;19.90;54.20
9987;DHT22;5033;46.310;11.214;2023-04-03T09:29:55;20.20;54.20
9987;DHT22;5033;46.310;11.214;2023-04-03T09:32:27;20.20;51.70
9987;DHT22;5033;46.310;11.214;2023-04-03T09:34:57;20.20;52.90
9987;DHT22;5033;46.310;11.214;2023-04-03T09:37:37;20.30;53.20
9987;DHT22;5033;46.310;11.214;2023-04-03T09:40:12;20.30;53.10
9987;DHT22;5033;46.310;11.214;2023-04-03T09:42:55;20.40;52.60
9987;DHT22;5033;46.310;11.214;2023-04-03T09:45:26;20.50;52.80
9987;DHT22;5033;46.310;11.214;2023-04-03T09:48:05;20.50;51.40
9987;DHT22;5033;46.310;11.214;2023-04-03T09:50:33;20.50;52.00
9987;DHT22;5033;46.310;11.214;2023-04-03T09:53:05;20.60;51.90
9987;DHT22;5033;46.310;11.214;2023-04-03T09:55:42;20.70;51.80
9987;DHT22;5033;46.310;11.214;2023-04-03T09:58:25;20.50;51.60
9987;DHT22;5033;46.310;11.214;2023-04-03T10:00:56;20.40;51.30
9987;DHT22;5033;46.310;11.214;2023-04-03T10:03:27;20.60;51.60
9987;DHT22;5033;46.310;11.214;2023-04-03T10:05:54;20.60;51.70
9987;DHT22;5033;46.310;11.214;2023-04-03T10:08:27;20.60;50.80
9987;DHT22;5033;46.310;11.214;2023-04-03T10:11:10;20.80;51.40
9987;DHT22;5033;46.310;11.214;2023-04-03T10:13:50;20.80;49.10
9987;DHT22;5033;46.310;11.214;2023-04-03T10:16:20;20.80;49.40
9987;DHT22;5033;46.310;11.214;2023-04-03T10:18:59;20.70;47.40
9987;DHT22;5033;46.310;11.214;2023-04-03T10:21:35;20.50;45.40
9987;DHT22;5033;46.310;11.214;2023-04-03T10:24:11;20.10;44.60
9987;DHT22;5033;46.310;11.214;2023-04-03T10:26:45;20.20;47.10
9987;DHT22;5033;46.310;11.214;2023-04-03T10:29:22;20.40;49.00
9987;DHT22;5033;46.310;11.214;2023-04-03T10:31:58;20.20;47.90
9987;DHT22;5033;46.310;11.214;2023-04-03T10:34:30;20.30;47.30
9987;DHT22;5033;46.310;11.214;2023-04-03T10:37:04;20.20;46.40
9987;DHT22;5033;46.310;11.214;2023-04-03T10:39:39;20.30;48.20
9987;DHT22;5033;46.310;11.214;2023-04-03T10:42:14;20.60;46.90
9987;DHT22;5033;46.310;11.214;2023-04-03T10:45:00;20.30;44.40
9987;DHT22;5033;46.310;11.214;2023-04-03T10:47:34;20.10;45.80
9987;DHT22;5033;46.310;11.214;2023-04-03T10:50:29;19.80;45.00
9987;DHT22;5033;46.310;11.214;2023-04-03T10:53:03;19.70;45.70
9987;DHT22;5033;46.310;11.214;2023-04-03T10:55:35;19.90;47.30
9987;DHT22;5033;46.310;11.214;2023-04-03T10:58:04;20.20;48.20
9987;DHT22;5033;46.310;11.214;2023-04-03T11:00:37;20.50;47.20
9987;DHT22;5033;46.310;11.214;2023-04-03T11:03:11;20.60;46.40
9987;DHT22;5033;46.310;11.214;2023-04-03T11:05:42;20.40;43.10
9987;DHT22;5033;46.310;11.214;2023-04-03T11:08:21;20.00;43.60
9987;DHT22;5033;46.310;11.214;2023-04-03T11:10:53;19.90;44.70
9987;DHT22;5033;46.310;11.214;2023-04-03T11:13:26;19.80;42.60
9987;DHT22;5033;46.310;11.214;2023-04-03T11:15:54;19.50;44.90
9987;DHT22;5033;46.310;11.214;2023-04-03T11:18:29;19.40;43.20
9987;DHT22;5033;46.310;11.214;2023-04-03T11:21:02;19.50;42.90
9987;DHT22;5033;46.310;11.214;2023-04-03T11:23:32;19.50;43.80
9987;DHT22;5033;46.310;11.214;2023-04-03T11:26:08;19.80;43.60
9987;DHT22;5033;46.310;11.214;2023-04-03T11:28:36;20.00;43.40
9987;DHT22;5033;46.310;11.214;2023-04-03T11:31:12;20.00;42.80
9987;DHT22;5033;46.310;11.214;2023-04-03T11:33:48;19.70;42.30
9987;DHT22;5033;46.310;11.214;2023-04-03T11:36:22;19.80;43.30
9987;DHT22;5033;46.310;11.214;2023-04-03T11:38:53;20.10;44.00
9987;DHT22;5033;46.310;11.214;2023-04-03T11:41:26;20.40;44.10
9987;DHT22;5033;46.310;11.214;2023-04-03T11:43:59;20.50;42.70
9987;DHT22;5033;46.310;11.214;2023-04-03T11:46:51;20.60;41.90
9987;DHT22;5033;46.310;11.214;2023-04-03T11:49:58;20.60;42.50
9987;DHT22;5033;46.310;11.214;2023-04-03T11:52:55;19.90;39.80
9987;DHT22;5033;46.310;11.214;2023-04-03T11:55:43;19.40;41.00
9987;DHT22;5033;46.310;11.214;2023-04-03T11:58:15;19.20;41.10
9987;DHT22;5033;46.310;11.214;2023-04-03T12:00:58;19.40;42.50
9987;DHT22;5033;46.310;11.214;2023-04-03T12:04:09;19.40;41.00
9987;DHT22;5033;46.310;11.214;2023-04-03T12:10:17;19.40;42.30
9987;DHT22;5033;46.310;11.214;2023-04-03T12:12:56;19.50;39.20
9987;DHT22;5033;46.310;11.214;2023-04-03T12:21:20;19.40;43.90
9987;DHT22;5033;46.310;11.214;2023-04-03T12:24:00;19.70;42.80
9987;DHT22;5033;46.310;11.214;2023-04-03T12:26:33;20.00;44.80
9987;DHT22;5033;46.310;11.214;2023-04-03T12:29:07;20.30;43.60
9987;DHT22;5033;46.310;11.214;2023-04-03T12:31:41;20.30;41.90
9987;DHT22;5033;46.310;11.214;2023-04-03T12:34:23;20.20;44.30
9987;DHT22;5033;46.310;11.214;2023-04-03T12:37:02;20.20;43.10
9987;DHT22;5033;46.310;11.214;2023-04-03T12:39:45;20.20;40.50
9987;DHT22;5033;46.310;11.214;2023-04-03T12:42:35;20.20;41.90
9987;DHT22;5033;46.310;11.214;2023-04-03T12:45:15;20.10;41.50
9987;DHT22;5033;46.310;11.214;2023-04-03T12:47:43;20.20;41.20
9987;DHT22;5033;46.310;11.214;2023-04-03T12:50:20;20.10;42.70
9987;DHT22;5033;46.310;11.214;2023-04-03T12:52:53;20.30;43.80
9987;DHT22;5033;46.310;11.214;2023-04-03T12:55:21;20.50;44.10
9987;DHT22;5033;46.310;11.214;2023-04-03T12:57:50;20.40;43.60
9987;DHT22;5033;46.310;11.214;2023-04-03T13:00:30;20.40;43.60
9987;DHT22;5033;46.310;11.214;2023-04-03T13:02:59;20.30;43.00
9987;DHT22;5033;46.310;11.214;2023-04-03T13:05:26;20.10;42.00
9987;DHT22;5033;46.310;11.214;2023-04-03T13:07:58;20.10;44.00
9987;DHT22;5033;46.310;11.214;2023-04-03T13:10:27;20.20;44.30
9987;DHT22;5033;46.310;11.214;2023-04-03T13:12:57;20.10;43.30
9987;DHT22;5033;46.310;11.214;2023-04-03T13:15:27;19.90;43.80
9987;DHT22;5033;46.310;11.214;2023-04-03T13:17:55;19.90;44.80
9987;DHT22;5033;46.310;11.214;2023-04-03T13:20:25;19.90;44.70
9987;DHT22;5033;46.310;11.214;2023-04-03T13:22:57;19.70;46.00
9987;DHT22;5033;46.310;11.214;2023-04-03T13:25:26;19.70;45.00
9987;DHT22;5033;46.310;11.214;2023-04-03T13:27:55;19.70;45.20
9987;DHT22;5033;46.310;11.214;2023-04-03T13:30:27;19.70;44.50
9987;DHT22;5033;46.310;11.214;2023-04-03T13:32:57;19.70;45.90
9987;DHT22;5033;46.310;11.214;2023-04-03T13:35:28;19.50;45.20
9987;DHT22;5033;46.310;11.214;2023-04-03T13:37:57;19.30;45.80
9987;DHT22;5033;46.310;11.214;2023-04-03T13:40:24;19.10;45.60
9987;DHT22;5033;46.310;11.214;2023-04-03T13:43:02;19.00;45.00
9987;DHT22;5033;46.310;11.214;2023-04-03T13:45:30;19.00;45.90
9987;DHT22;5033;46.310;11.214;2023-04-03T13:48:11;19.10;45.30
9987;DHT22;5033;46.310;11.214;2023-04-03T13:50:54;19.20;44.90
9987;DHT22;5033;46.310;11.214;2023-04-03T13:53:22;19.10;44.10
9987;DHT22;5033;46.310;11.214;2023-04-03T13:55:57;19.10;45.40
9987;DHT22;5033;46.310;11.214;2023-04-03T13:58:27;18.90;44.90
9987;DHT22;5033;46.310;11.214;2023-04-03T14:00:59;18.90;45.40
9987;DHT22;5033;46.310;11.214;2023-04-03T14:03:30;18.70;45.80
9987;DHT22;5033;46.310;11.214;2023-04-03T14:05:58;18.70;45.90
9987;DHT22;5033;46.310;11.214;2023-04-03T14:08:25;18.60;45.60
9987;DHT22;5033;46.310;11.214;2023-04-03T14:10:53;18.50;46.10
9987;DHT22;5033;46.310;11.214;2023-04-03T14:13:20;18.50;45.70
9987;DHT22;5033;46.310;11.214;2023-04-03T14:15:49;18.40;45.40
9987;DHT22;5033;46.310;11.214;2023-04-03T14:18:19;18.30;45.20
9987;DHT22;5033;46.310;11.214;2023-04-03T14:20:47;18.30;45.60
9987;DHT22;5033;46.310;11.214;2023-04-03T14:23:14;18.20;46.40
9987;DHT22;5033;46.310;11.214;2023-04-03T14:25:42;18.30;45.20
9987;DHT22;5033;46.310;11.214;2023-04-03T14:28:15;18.40;45.40
9987;DHT22;5033;46.310;11.214;2023-04-03T14:30:42;18.40;45.90
9987;DHT22;5033;46.310;11.214;2023-04-03T14:33:14;18.40;45.90
9987;DHT22;5033;46.310;11.214;2023-04-03T14:35:42;18.20;45.40
9987;DHT22;5033;46.310;11.214;2023-04-03T14:38:23;18.00;45.00
9987;DHT22;5033;46.310;11.214;2023-04-03T14:40:51;18.00;44.90
9987;DHT22;5033;46.310;11.214;2023-04-03T14:43:18;18.00;45.40
9987;DHT22;5033;46.310;11.214;2023-04-03T14:45:45;18.10;45.20
9987;DHT22;5033;46.310;11.214;2023-04-03T14:48:17;18.00;45.10
9987;DHT22;5033;46.310;11.214;2023-04-03T14:50:45;17.90;45.10
9987;DHT22;5033;46.310;11.214;2023-04-03T14:53:14;17.80;45.80
9987;DHT22;5033;46.310;11.214;2023-04-03T14:55:43;17.90;46.20
9987;DHT22;5033;46.310;11.214;2023-04-03T14:58:13;17.90;46.70
9987;DHT22;5033;46.310;11.214;2023-04-03T15:00:41;17.70;45.70
9987;DHT22;5033;46.310;11.214;2023-04-03T15:03:14;17.60;46.50
9987;DHT22;5033;46.310;11.214;2023-04-03T15:05:42;17.50;46.00
9987;DHT22;5033;46.310;11.214;2023-04-03T15:08:18;17.40;46.00
9987;DHT22;5033;46.310;11.214;2023-04-03T15:10:45;17.40;46.70
9987;DHT22;5033;46.310;11.214;2023-04-03T15:13:13;17.40;46.90
9987;DHT22;5033;46.310;11.214;2023-04-03T15:15:40;17.20;46.50
9987;DHT22;5033;46.310;11.214;2023-04-03T15:18:13;17.00;47.10
9987;DHT22;5033;46.310;11.214;2023-04-03T15:20:42;16.90;47.10
9987;DHT22;5033;46.310;11.214;2023-04-03T15:23:10;16.70;46.50
9987;DHT22;5033;46.310;11.214;2023-04-03T15:25:38;16.50;47.50
9987;DHT22;5033;46.310;11.214;2023-04-03T15:28:06;16.50;47.50
9987;DHT22;5033;46.310;11.214;2023-04-03T15:30:36;16.40;47.50
9987;DHT22;5033;46.310;11.214;2023-04-03T15:33:04;16.00;47.90
9987;DHT22;5033;46.310;11.214;2023-04-03T15:35:31;15.50;48.40
9987;DHT22;5033;46.310;11.214;2023-04-03T15:38:00;15.20;48.60
9987;DHT22;5033;46.310;11.214;2023-04-03T15:40:27;14.90;49.30
9987;DHT22;5033;46.310;11.214;2023-04-03T15:42:54;14.70;49.30
9987;DHT22;5033;46.310;11.214;2023-04-03T15:45:21;14.50;49.30
9987;DHT22;5033;46.310;11.214;2023-04-03T15:47:48;14.30;49.10
9987;DHT22;5033;46.310;11.214;2023-04-03T15:50:15;14.20;49.30
9987;DHT22;5033;46.310;11.214;2023-04-03T15:52:43;14.00;49.40
9987;DHT22;5033;46.310;11.214;2023-04-03T15:55:11;13.90;49.70
9987;DHT22;5033;46.310;11.214;2023-04-03T15:57:38;13.80;49.60
9987;DHT22;5033;46.310;11.214;2023-04-03T16:00:06;13.70;49.60
9987;DHT22;5033;46.310;11.214;2023-04-03T16:02:34;13.70;49.20
9987;DHT22;5033;46.310;11.214;2023-04-03T16:05:01;13.60;49.50
9987;DHT22;5033;46.310;11.214;2023-04-03T16:07:28;13.60;49.70
9987;DHT22;5033;46.310;11.214;2023-04-03T16:09:55;13.50;49.80
9987;DHT22;5033;46.310;11.214;2023-04-03T16:12:24;13.40;50.00
9987;DHT22;5033;46.310;11.214;2023-04-03T16:14:51;13.40;50.20
9987;DHT22;5033;46.310;11.214;2023-04-03T16:17:18;13.40;50.30
9987;DHT22;5033;46.310;11.214;2023-04-03T16:19:45;13.30;50.60